createdAt,value
2022-09-23T00:01:26.604Z,81.96
2022-09-23T00:03:54.801Z,81.94
2022-09-23T00:06:23.895Z,81.82
2022-09-23T00:08:52.414Z,81.68
2022-09-23T00:11:23.750Z,81.75
2022-09-23T00:13:58.544Z,81.73
2022-09-23T00:16:34.461Z,81.77
2022-09-23T00:19:03.755Z,81.69
2022-09-23T00:21:31.823Z,81.86
2022-09-23T00:23:59.589Z,82.12
2022-09-23T00:26:27.975Z,82.23
2022-09-23T00:28:55.993Z,82.16
2022-09-23T00:31:26.336Z,82.04
2022-09-23T00:34:00.014Z,82.07
2022-09-23T00:36:30.500Z,82.07
2022-09-23T00:38:58.320Z,82.07
2022-09-23T00:41:26.718Z,82.11
2022-09-23T00:43:58.406Z,82.23
2022-09-23T00:46:35.163Z,82.21
2022-09-23T00:49:09.320Z,82.06
2022-09-23T00:51:43.672Z,81.73
2022-09-23T00:54:11.655Z,81.63
2022-09-23T00:56:40.245Z,81.72
2022-09-23T00:59:09.878Z,81.83
2022-09-23T01:01:39.211Z,81.58
2022-09-23T01:04:08.038Z,81.42
2022-09-23T01:06:36.309Z,81.11
2022-09-23T01:09:04.399Z,81.02
2022-09-23T01:11:50.631Z,81.08
2022-09-23T01:14:38.635Z,81.07
2022-09-23T01:17:15.599Z,80.97
2022-09-23T01:20:08.484Z,81.03
2022-09-23T01:22:49.869Z,81.14
2022-09-23T01:25:50.783Z,81.22
2022-09-23T01:28:55.515Z,81.30
2022-09-23T01:31:28.333Z,81.37
2022-09-23T01:34:16.087Z,81.43
2022-09-23T01:36:54.445Z,81.65
2022-09-23T01:39:37.968Z,81.71
2022-09-23T01:42:06.066Z,81.81
2022-09-23T01:44:58.137Z,82.00
2022-09-23T01:47:38.055Z,82.44
2022-09-23T01:50:42.873Z,87.35
2022-09-23T01:53:21.381Z,83.32
2022-09-23T01:55:57.425Z,79.40
2022-09-23T01:58:45.245Z,75.16
2022-09-23T02:01:19.653Z,73.81
2022-09-23T02:03:55.475Z,76.04
2022-09-23T02:06:33.552Z,70.94
2022-09-23T02:09:14.088Z,69.20
2022-09-23T02:11:48.309Z,65.54
2022-09-23T02:14:24.690Z,65.58
2022-09-23T02:16:57.073Z,63.57
2022-09-23T02:19:47.925Z,65.44
2022-09-23T02:22:22.061Z,64.55
2022-09-23T02:24:50.218Z,61.00
2022-09-23T02:27:37.605Z,61.07
2022-09-23T02:30:14.255Z,60.80
2022-09-23T02:32:54.205Z,62.14
2022-09-23T02:35:32.978Z,61.54
2022-09-23T02:38:19.183Z,60.92
2022-09-23T02:40:57.661Z,58.21
2022-09-23T02:43:30.405Z,58.53
2022-09-23T02:45:58.456Z,59.75
2022-09-23T02:48:32.823Z,61.38
2022-09-23T02:51:03.755Z,65.18
2022-09-23T02:53:35.041Z,68.04
2022-09-23T02:56:14.371Z,65.97
2022-09-23T02:58:42.599Z,63.85
2022-09-23T03:01:34.478Z,64.09
2022-09-23T03:04:51.158Z,62.78
2022-09-23T03:07:51.173Z,62.61
2022-09-23T03:11:05.958Z,63.03
2022-09-23T03:14:07.137Z,62.66
2022-09-23T03:16:56.916Z,63.65
2022-09-23T03:19:49.049Z,62.62
2022-09-23T03:22:46.243Z,62.64
2022-09-23T03:25:21.313Z,62.55
2022-09-23T03:27:49.302Z,62.89
2022-09-23T03:30:18.329Z,63.62
2022-09-23T03:32:47.163Z,70.53
2022-09-23T03:35:15.199Z,65.79
2022-09-23T03:38:12.103Z,64.32
2022-09-23T03:40:43.981Z,64.26
2022-09-23T03:43:13.954Z,64.69
2022-09-23T03:45:42.761Z,64.48
2022-09-23T03:48:10.735Z,65.89
2022-09-23T03:50:39.326Z,65.47
2022-09-23T03:53:07.426Z,67.47
2022-09-23T03:55:35.798Z,69.42
2022-09-23T03:58:04.834Z,67.72
2022-09-23T04:00:32.620Z,67.67
2022-09-23T04:03:00.440Z,67.41
2022-09-23T04:05:28.443Z,67.47
2022-09-23T04:07:56.826Z,66.12
2022-09-23T04:10:24.620Z,68.20
2022-09-23T04:12:52.484Z,72.50
2022-09-23T04:15:20.151Z,68.66
2022-09-23T04:17:47.845Z,63.76
2022-09-23T04:20:16.283Z,62.62
2022-09-23T04:22:43.960Z,61.60
2022-09-23T04:25:11.763Z,61.45
2022-09-23T04:27:39.742Z,60.70
2022-09-23T04:30:08.155Z,61.74
2022-09-23T04:32:36.885Z,63.48
2022-09-23T04:35:05.853Z,65.25
2022-09-23T04:37:33.641Z,65.66
2022-09-23T04:40:01.849Z,66.97
2022-09-23T04:42:30.747Z,70.33
2022-09-23T04:44:59.017Z,69.45
2022-09-23T04:47:26.862Z,69.08
2022-09-23T04:49:59.058Z,70.47
2022-09-23T04:52:27.492Z,71.30
2022-09-23T04:54:55.185Z,72.88
2022-09-23T04:57:24.650Z,73.50
2022-09-23T04:59:54.791Z,74.45
2022-09-23T05:02:23.184Z,75.32
2022-09-23T05:04:51.123Z,75.87
2022-09-23T05:07:19.292Z,76.73
2022-09-23T05:09:47.300Z,77.72
2022-09-23T05:12:15.399Z,78.46
2022-09-23T05:14:43.271Z,78.48
2022-09-23T05:17:11.855Z,78.78
2022-09-23T05:19:39.771Z,78.18
2022-09-23T05:22:07.634Z,78.69
2022-09-23T05:24:35.452Z,78.99
2022-09-23T05:27:05.471Z,78.90
2022-09-23T05:29:33.877Z,79.54
2022-09-23T05:32:01.785Z,80.32
2022-09-23T05:34:29.765Z,80.49
2022-09-23T05:36:58.526Z,80.94
2022-09-23T05:39:26.203Z,81.10
2022-09-23T05:41:55.707Z,82.10
2022-09-23T05:44:23.414Z,82.01
2022-09-23T05:46:51.203Z,82.57
2022-09-23T05:49:19.193Z,82.51
2022-09-23T05:51:47.001Z,82.83
2022-09-23T05:54:14.691Z,83.12
2022-09-23T05:56:42.627Z,83.57
2022-09-23T05:59:10.706Z,83.98
2022-09-23T06:01:39.102Z,83.82
2022-09-23T06:04:08.321Z,83.41
2022-09-23T06:06:41.877Z,83.97
2022-09-23T06:09:14.190Z,84.47
2022-09-23T06:11:42.287Z,85.12
2022-09-23T06:14:13.913Z,85.23
2022-09-23T06:16:43.239Z,85.38
2022-09-23T06:19:11.077Z,85.33
2022-09-23T06:21:40.578Z,85.49
2022-09-23T06:24:09.634Z,86.41
2022-09-23T06:26:38.409Z,86.82
2022-09-23T06:29:14.681Z,86.33
2022-09-23T06:31:43.549Z,86.18
2022-09-23T06:34:13.879Z,86.14
2022-09-23T06:36:45.848Z,86.35
2022-09-23T06:39:15.504Z,86.89
2022-09-23T06:41:46.582Z,86.54
2022-09-23T06:44:16.021Z,87.03
2022-09-23T06:46:44.353Z,87.20
2022-09-23T06:49:13.175Z,87.35
2022-09-23T06:51:41.462Z,87.27
2022-09-23T06:54:09.591Z,87.40
2022-09-23T06:56:39.704Z,87.63
2022-09-23T06:59:11.288Z,87.35
2022-09-23T07:01:39.502Z,87.34
2022-09-23T07:04:09.926Z,87.32
2022-09-23T07:06:38.613Z,87.45
2022-09-23T07:09:07.873Z,88.04
2022-09-23T07:11:36.065Z,88.35
2022-09-23T07:14:03.853Z,88.55
2022-09-23T07:16:32.940Z,88.58
2022-09-23T07:19:00.771Z,88.10
2022-09-23T07:21:28.550Z,88.50
2022-09-23T07:23:58.326Z,88.70
2022-09-23T07:26:26.525Z,88.54
2022-09-23T07:29:04.949Z,88.33
2022-09-23T07:31:39.615Z,88.01
2022-09-23T07:34:11.868Z,87.92
2022-09-23T07:36:41.167Z,87.91
2022-09-23T07:39:11.265Z,87.73
2022-09-23T07:41:39.884Z,87.56
2022-09-23T07:44:08.244Z,87.21
2022-09-23T07:46:37.133Z,87.55
2022-09-23T07:49:06.258Z,87.40
2022-09-23T07:51:37.057Z,87.39
2022-09-23T07:54:11.939Z,87.20
2022-09-23T07:56:40.450Z,87.38
2022-09-23T07:59:12.100Z,87.14
2022-09-23T08:01:42.944Z,86.96
2022-09-23T08:04:19.863Z,86.60
2022-09-23T08:06:54.236Z,87.05
2022-09-23T08:09:25.114Z,86.70
2022-09-23T08:11:53.236Z,85.78
2022-09-23T08:14:22.572Z,86.63
2022-09-23T08:16:52.370Z,86.01
2022-09-23T08:19:20.339Z,85.32
2022-09-23T08:21:48.333Z,84.87
2022-09-23T08:24:18.753Z,84.54
2022-09-23T08:26:48.116Z,84.25
2022-09-23T08:29:17.961Z,83.92
2022-09-23T08:31:46.578Z,84.08
2022-09-23T08:34:14.397Z,83.65
2022-09-23T08:36:42.396Z,83.60
2022-09-23T08:39:15.465Z,83.44
2022-09-23T08:42:02.290Z,83.44
2022-09-23T08:44:54.152Z,83.45
2022-09-23T08:47:25.068Z,83.28
2022-09-23T08:50:02.256Z,83.29
2022-09-23T08:52:45.373Z,83.03
2022-09-23T08:55:16.079Z,82.63
2022-09-23T08:58:24.609Z,82.27
2022-09-23T09:01:08.367Z,82.00
2022-09-23T09:03:45.301Z,82.02
2022-09-23T09:06:19.546Z,81.90
2022-09-23T09:08:55.704Z,82.12
2022-09-23T09:11:31.669Z,81.81
2022-09-23T09:14:11.510Z,80.74
2022-09-23T09:17:01.169Z,80.11
2022-09-23T09:19:35.655Z,79.97
2022-09-23T09:22:07.527Z,79.17
2022-09-23T09:24:35.602Z,79.13
2022-09-23T09:27:12.156Z,79.11
2022-09-23T09:29:50.013Z,78.32
2022-09-23T09:32:24.681Z,78.66
2022-09-23T09:34:59.877Z,78.74
2022-09-23T09:37:36.948Z,76.82
2022-09-23T09:40:05.568Z,75.75
2022-09-23T09:42:41.752Z,75.61
2022-09-23T09:45:11.102Z,76.25
2022-09-23T09:48:15.219Z,75.70
2022-09-23T09:50:52.209Z,76.50
2022-09-23T09:53:22.403Z,75.47
2022-09-23T09:56:09.528Z,74.57
2022-09-23T09:58:55.387Z,73.41
2022-09-23T10:01:26.628Z,74.80
2022-09-23T10:03:59.222Z,75.57
2022-09-23T10:06:31.844Z,72.18
2022-09-23T10:09:02.451Z,71.93
2022-09-23T10:11:31.828Z,72.40
2022-09-23T10:14:00.348Z,72.06
2022-09-23T10:16:33.244Z,73.52
2022-09-23T10:19:03.944Z,72.27
2022-09-23T10:21:36.518Z,71.69
2022-09-23T10:24:07.144Z,71.17
2022-09-23T10:26:46.530Z,72.77
2022-09-23T10:29:29.060Z,71.71
2022-09-23T10:32:26.648Z,72.57
2022-09-23T10:35:17.078Z,68.46
2022-09-23T10:37:46.833Z,67.96
2022-09-23T10:40:36.752Z,69.00
2022-09-23T10:43:35.393Z,69.96
2022-09-23T10:46:26.990Z,70.07
2022-09-23T10:49:22.983Z,70.51
2022-09-23T10:52:27.928Z,69.88
2022-09-23T10:55:20.353Z,69.17
2022-09-23T10:57:54.346Z,68.90
2022-09-23T11:00:42.287Z,67.95
2022-09-23T11:03:51.219Z,67.56
2022-09-23T11:06:44.811Z,67.70
2022-09-23T11:09:28.771Z,68.16
2022-09-23T11:11:59.259Z,65.67
2022-09-23T11:15:16.566Z,64.02
2022-09-23T11:18:11.179Z,63.33
2022-09-23T11:20:51.348Z,65.85
2022-09-23T11:23:41.990Z,64.78
2022-09-23T11:26:40.910Z,63.76
2022-09-23T11:29:25.446Z,62.08
2022-09-23T11:32:19.602Z,62.21
2022-09-23T11:34:52.689Z,62.85
2022-09-23T11:37:30.414Z,63.43
2022-09-23T11:40:15.710Z,62.12
2022-09-23T11:43:14.254Z,62.86
2022-09-23T11:45:58.041Z,63.82
2022-09-23T11:48:36.113Z,61.32
2022-09-23T11:51:23.788Z,60.55
2022-09-23T11:53:54.344Z,62.58
2022-09-23T11:56:36.885Z,62.97
2022-09-23T11:59:16.141Z,63.94
2022-09-23T12:02:13.989Z,62.30
2022-09-23T12:04:57.742Z,61.24
2022-09-23T12:07:42.113Z,60.02
2022-09-23T12:10:11.978Z,58.25
2022-09-23T12:13:16.317Z,58.61
2022-09-23T12:16:07.625Z,61.01
2022-09-23T12:19:04.859Z,60.07
2022-09-23T12:21:59.526Z,58.52
2022-09-23T12:24:47.651Z,61.77
2022-09-23T12:27:30.320Z,59.05
2022-09-23T12:30:02.599Z,59.72
2022-09-23T12:32:32.420Z,60.00
2022-09-23T12:35:00.945Z,59.10
2022-09-23T12:37:34.892Z,58.05
2022-09-23T12:40:09.994Z,59.63
2022-09-23T12:42:44.264Z,59.78
2022-09-23T12:45:34.056Z,60.09
2022-09-23T12:48:27.427Z,60.69
2022-09-23T12:51:16.393Z,58.86
2022-09-23T12:53:55.332Z,56.80
2022-09-23T12:56:33.932Z,57.77
2022-09-23T12:59:25.569Z,58.65
2022-09-23T13:01:54.273Z,58.22
2022-09-23T13:04:48.485Z,57.69
2022-09-23T13:07:22.119Z,57.15
2022-09-23T13:09:52.839Z,58.61
2022-09-23T13:12:29.207Z,58.30
2022-09-23T13:15:03.819Z,58.95
2022-09-23T13:17:39.989Z,58.59
2022-09-23T13:20:19.864Z,57.93
2022-09-23T13:22:53.710Z,59.48
2022-09-23T13:25:32.709Z,58.76
2022-09-23T13:28:02.284Z,59.80
2022-09-23T13:30:30.451Z,59.09
2022-09-23T13:33:10.801Z,59.06
2022-09-23T13:35:44.663Z,58.76
2022-09-23T13:38:26.483Z,58.78
2022-09-23T13:41:10.850Z,59.32
2022-09-23T13:43:42.842Z,59.48
2022-09-23T13:46:16.179Z,60.69
2022-09-23T13:48:46.357Z,60.74
2022-09-23T13:51:30.455Z,57.92
2022-09-23T13:54:00.701Z,58.00
2022-09-23T13:56:31.864Z,59.77
2022-09-23T13:59:18.195Z,57.02
2022-09-23T14:01:47.203Z,57.90
2022-09-23T14:04:25.645Z,58.65
2022-09-23T14:06:54.668Z,59.17
2022-09-23T14:09:27.624Z,57.98
2022-09-23T14:11:59.189Z,57.75
2022-09-23T14:14:29.018Z,57.36
2022-09-23T14:16:58.342Z,57.38
2022-09-23T14:19:26.626Z,56.01
2022-09-23T14:21:56.077Z,55.44
2022-09-23T14:24:31.954Z,55.14
2022-09-23T14:27:18.016Z,55.34
2022-09-23T14:29:49.500Z,55.82
2022-09-23T14:32:21.363Z,56.46
2022-09-23T14:35:01.388Z,55.86
2022-09-23T14:37:57.194Z,56.35
2022-09-23T14:40:28.739Z,56.85
2022-09-23T14:43:26.083Z,55.26
2022-09-23T14:45:58.807Z,56.29
2022-09-23T14:48:28.410Z,54.57
2022-09-23T14:50:58.947Z,54.47
2022-09-23T14:53:37.460Z,55.16
2022-09-23T14:56:08.026Z,53.39
2022-09-23T14:58:55.578Z,52.70
2022-09-23T15:01:39.380Z,52.99
2022-09-23T15:04:16.363Z,53.22
2022-09-23T15:06:54.360Z,52.89
2022-09-23T15:09:41.826Z,53.59
2022-09-23T15:12:15.786Z,54.06
2022-09-23T15:14:49.661Z,53.81
2022-09-23T15:17:17.534Z,53.52
2022-09-23T15:19:46.652Z,54.34
2022-09-23T15:22:16.747Z,54.96
2022-09-23T15:24:45.579Z,54.94
2022-09-23T15:27:27.597Z,55.16
2022-09-23T15:30:03.812Z,55.40
2022-09-23T15:32:31.614Z,54.72
2022-09-23T15:34:59.702Z,55.65
2022-09-23T15:37:27.504Z,55.74
2022-09-23T15:39:55.520Z,56.56
2022-09-23T15:42:23.544Z,56.24
2022-09-23T15:44:51.465Z,56.67
2022-09-23T15:47:21.649Z,56.60
2022-09-23T15:49:49.662Z,56.71
2022-09-23T15:52:17.842Z,57.14
2022-09-23T15:54:46.242Z,57.17
2022-09-23T15:57:14.104Z,57.73
2022-09-23T15:59:41.926Z,58.12
2022-09-23T16:02:21.331Z,59.05
2022-09-23T16:04:51.097Z,60.01
2022-09-23T16:07:19.915Z,60.54
2022-09-23T16:09:47.761Z,61.30
2022-09-23T16:12:16.130Z,61.57
2022-09-23T16:14:43.882Z,62.26
2022-09-23T16:17:14.285Z,62.70
2022-09-23T16:19:42.181Z,63.07
2022-09-23T16:22:14.447Z,63.69
2022-09-23T16:24:42.718Z,64.08
2022-09-23T16:27:13.639Z,64.47
2022-09-23T16:29:42.165Z,64.75
2022-09-23T16:32:10.365Z,64.81
2022-09-23T16:34:38.200Z,65.08
2022-09-23T16:37:06.996Z,65.41
2022-09-23T16:39:35.132Z,65.74
2022-09-23T16:42:03.490Z,66.56
2022-09-23T16:44:33.209Z,66.71
2022-09-23T16:47:01.074Z,67.03
2022-09-23T16:49:28.929Z,67.20
2022-09-23T16:51:56.752Z,67.71
2022-09-23T16:54:25.192Z,67.94
2022-09-23T16:56:55.155Z,68.29
2022-09-23T16:59:22.868Z,68.51
2022-09-23T17:02:09.538Z,68.62
2022-09-23T17:04:38.748Z,68.65
2022-09-23T17:07:06.827Z,68.97
2022-09-23T17:09:34.584Z,69.37
2022-09-23T17:12:12.750Z,69.55
2022-09-23T17:14:40.865Z,70.06
2022-09-23T17:17:08.744Z,70.09
2022-09-23T17:19:38.222Z,70.31
2022-09-23T17:22:06.152Z,70.77
2022-09-23T17:24:33.994Z,70.98
2022-09-23T17:27:01.752Z,71.21
2022-09-23T17:29:30.028Z,71.38
2022-09-23T17:31:58.335Z,71.38
2022-09-23T17:34:26.210Z,71.77
2022-09-23T17:36:54.393Z,72.03
2022-09-23T17:39:22.346Z,72.17
2022-09-23T17:41:50.135Z,72.34
2022-09-23T17:44:18.074Z,72.43
2022-09-23T17:46:47.251Z,72.48
2022-09-23T17:49:15.581Z,72.66
2022-09-23T17:51:43.577Z,72.75
2022-09-23T17:54:12.146Z,72.96
2022-09-23T17:56:39.921Z,73.45
2022-09-23T17:59:11.674Z,73.57
2022-09-23T18:01:39.688Z,73.91
2022-09-23T18:04:07.570Z,74.15
2022-09-23T18:06:37.716Z,74.56
2022-09-23T18:09:07.778Z,74.82
2022-09-23T18:11:38.757Z,75.08
2022-09-23T18:14:21.756Z,75.25
2022-09-23T18:16:52.738Z,75.32
2022-09-23T18:19:22.647Z,75.27
2022-09-23T18:21:54.635Z,75.11
2022-09-23T18:24:38.716Z,75.15
2022-09-23T18:27:07.695Z,75.36
2022-09-23T18:29:35.879Z,75.66
2022-09-23T18:32:13.419Z,75.89
2022-09-23T18:34:48.974Z,76.12
2022-09-23T18:37:17.591Z,76.03
2022-09-23T18:39:45.897Z,75.96
2022-09-23T18:42:14.760Z,75.76
2022-09-23T18:44:43.982Z,76.13
2022-09-23T18:47:32.791Z,75.90
2022-09-23T18:50:20.594Z,76.01
2022-09-23T18:52:48.510Z,76.84
2022-09-23T18:55:16.483Z,76.11
2022-09-23T18:57:45.079Z,75.61
2022-09-23T19:00:13.320Z,75.57
2022-09-23T19:02:41.651Z,75.35
2022-09-23T19:05:09.567Z,75.99
2022-09-23T19:07:37.674Z,76.31
2022-09-23T19:10:06.227Z,76.48
2022-09-23T19:12:34.265Z,76.72
2022-09-23T19:15:03.329Z,76.79
2022-09-23T19:17:31.398Z,76.63
2022-09-23T19:19:59.294Z,76.65
2022-09-23T19:22:27.334Z,76.67
2022-09-23T19:24:55.615Z,76.84
2022-09-23T19:27:23.562Z,76.85
2022-09-23T19:29:51.410Z,76.97
2022-09-23T19:32:19.472Z,76.67
2022-09-23T19:34:48.045Z,76.97
2022-09-23T19:37:16.609Z,77.23
2022-09-23T19:39:44.791Z,77.27
2022-09-23T19:42:12.809Z,77.48
2022-09-23T19:44:41.192Z,77.54
2022-09-23T19:47:15.519Z,77.62
2022-09-23T19:49:44.000Z,77.47
2022-09-23T19:52:12.052Z,77.41
2022-09-23T19:54:39.757Z,77.47
2022-09-23T19:57:07.429Z,77.44
2022-09-23T19:59:35.726Z,77.50
2022-09-23T20:02:03.769Z,77.63
2022-09-23T20:04:31.998Z,77.53
2022-09-23T20:07:00.434Z,77.36
2022-09-23T20:09:29.091Z,77.21
2022-09-23T20:11:57.373Z,77.15
2022-09-23T20:14:27.191Z,77.38
2022-09-23T20:16:55.006Z,77.46
2022-09-23T20:19:22.806Z,77.63
2022-09-23T20:22:10.697Z,77.73
2022-09-23T20:24:38.585Z,77.63
2022-09-23T20:27:09.425Z,77.74
2022-09-23T20:29:37.598Z,77.49
2022-09-23T20:32:05.778Z,77.49
2022-09-23T20:34:33.837Z,77.68
2022-09-23T20:37:01.716Z,77.54
2022-09-23T20:39:30.100Z,77.39
2022-09-23T20:41:58.535Z,77.36
2022-09-23T20:44:26.314Z,77.11
2022-09-23T20:46:54.526Z,76.87
2022-09-23T20:49:22.693Z,76.82
2022-09-23T20:51:50.751Z,76.75
2022-09-23T20:54:19.483Z,76.69
2022-09-23T20:56:47.934Z,76.66
2022-09-23T20:59:17.956Z,76.71
2022-09-23T21:01:47.896Z,76.72
2022-09-23T21:04:16.109Z,76.91
2022-09-23T21:06:43.886Z,76.75
2022-09-23T21:09:11.757Z,76.80
2022-09-23T21:11:39.730Z,76.79
2022-09-23T21:14:07.556Z,76.79
2022-09-23T21:16:35.450Z,76.72
2022-09-23T21:19:07.490Z,76.87
2022-09-23T21:21:35.794Z,76.92
2022-09-23T21:24:31.258Z,76.94
2022-09-23T21:26:51.942Z,77.10
2022-09-23T21:29:20.042Z,76.78
2022-09-23T21:31:49.673Z,76.72
2022-09-23T21:34:19.402Z,76.80
2022-09-23T21:36:48.244Z,76.99
2022-09-23T21:39:16.169Z,77.22
2022-09-23T21:41:44.165Z,77.16
2022-09-23T21:44:12.184Z,77.08
2022-09-23T21:46:40.094Z,77.08
2022-09-23T21:49:09.354Z,77.00
2022-09-23T21:51:41.590Z,77.16
2022-09-23T21:54:14.715Z,77.23
2022-09-23T21:56:44.312Z,77.20
2022-09-23T21:59:13.153Z,77.28
2022-09-23T22:01:44.663Z,77.43
2022-09-23T22:04:18.489Z,77.42
2022-09-23T22:06:48.936Z,77.63
2022-09-23T22:09:21.072Z,77.38
2022-09-23T22:12:07.880Z,77.25
2022-09-23T22:14:36.447Z,77.30
2022-09-23T22:17:06.008Z,77.18
2022-09-23T22:19:40.234Z,77.21
2022-09-23T22:22:15.107Z,77.16
2022-09-23T22:24:45.073Z,77.21
2022-09-23T22:27:18.921Z,77.49
2022-09-23T22:30:05.927Z,77.70
2022-09-23T22:32:43.070Z,77.73
2022-09-23T22:35:19.422Z,77.87
2022-09-23T22:37:51.865Z,77.78
2022-09-23T22:40:19.750Z,77.76
2022-09-23T22:42:48.613Z,77.84
2022-09-23T22:45:16.604Z,77.67
2022-09-23T22:47:45.672Z,77.60
2022-09-23T22:50:14.965Z,77.58
2022-09-23T22:52:44.026Z,77.52
2022-09-23T22:55:12.395Z,77.52
2022-09-23T22:57:40.298Z,77.44
2022-09-23T23:00:09.548Z,77.41
2022-09-23T23:02:37.373Z,77.40
2022-09-23T23:05:08.774Z,77.35
2022-09-23T23:07:37.475Z,77.39
2022-09-23T23:10:07.321Z,77.40
2022-09-23T23:12:35.156Z,77.44
2022-09-23T23:15:05.589Z,77.74
2022-09-23T23:17:33.656Z,77.99
2022-09-23T23:20:02.222Z,77.93
2022-09-23T23:22:30.191Z,77.85
2022-09-23T23:24:57.960Z,77.72
2022-09-23T23:27:25.825Z,77.90
2022-09-23T23:29:54.195Z,77.82
2022-09-23T23:32:22.030Z,77.78
2022-09-23T23:34:49.820Z,77.76
2022-09-23T23:37:20.778Z,77.91
2022-09-23T23:39:48.918Z,78.14
2022-09-23T23:42:16.644Z,77.99
2022-09-23T23:44:44.857Z,77.91
2022-09-23T23:47:12.665Z,77.97
2022-09-23T23:49:40.444Z,78.18
2022-09-23T23:52:08.472Z,78.38
2022-09-23T23:54:36.211Z,78.26
2022-09-23T23:57:04.547Z,78.25
2022-09-23T23:59:34.391Z,78.16
